createdAt,value
2019-03-06T00:03:16.519Z,100441.91
2019-03-06T00:08:21.970Z,100433.77
2019-03-06T00:13:27.369Z,100421.09
2019-03-06T00:18:32.859Z,100422.27
2019-03-06T00:23:38.219Z,100415.28
2019-03-06T00:28:43.616Z,100413.59
2019-03-06T00:33:49.005Z,100413.77
2019-03-06T00:38:54.390Z,100405.92
2019-03-06T00:43:59.937Z,100395.23
2019-03-06T00:49:05.509Z,100391.74
2019-03-06T00:54:10.906Z,100386.41
2019-03-06T00:59:16.293Z,100384.70
2019-03-06T01:04:21.675Z,100373.84
2019-03-06T01:09:27.052Z,100375.67
2019-03-06T01:14:32.429Z,100371.58
2019-03-06T01:19:37.805Z,100374.31
2019-03-06T01:24:43.187Z,100367.68
2019-03-06T01:29:48.576Z,100364.00
2019-03-06T01:35:18.526Z,100358.90
2019-03-06T01:40:45.625Z,100354.67
2019-03-06T01:45:51.042Z,100351.79
2019-03-06T01:50:56.395Z,100355.17
2019-03-06T01:56:01.758Z,100346.71
2019-03-06T02:01:07.147Z,100337.75
2019-03-06T02:06:12.495Z,100329.84
2019-03-06T02:11:17.915Z,100322.48
2019-03-06T02:16:23.265Z,100310.80
2019-03-06T02:21:28.678Z,100296.48
2019-03-06T02:26:34.052Z,100290.02
2019-03-06T02:31:39.410Z,100284.16
2019-03-06T02:36:44.817Z,100279.88
2019-03-06T02:41:50.259Z,100274.41
2019-03-06T02:46:55.615Z,100286.59
2019-03-06T02:52:00.990Z,100268.53
2019-03-06T02:57:06.398Z,100258.87
2019-03-06T03:02:20.159Z,100251.09
2019-03-06T03:07:25.574Z,100237.45
2019-03-06T03:12:31.093Z,100224.61
2019-03-06T03:17:36.418Z,100224.63
2019-03-06T03:22:41.779Z,100212.77
2019-03-06T03:27:47.186Z,100220.98
2019-03-06T03:32:52.562Z,100216.81
2019-03-06T03:37:57.967Z,100204.89
2019-03-06T03:43:03.342Z,100193.66
2019-03-06T03:48:08.734Z,100183.30
2019-03-06T03:53:14.105Z,100171.11
2019-03-06T03:58:19.556Z,100180.23
2019-03-06T04:03:25.086Z,100178.80
2019-03-06T04:08:30.504Z,100160.94
2019-03-06T04:13:35.863Z,100158.73
2019-03-06T04:18:41.255Z,100166.73
2019-03-06T04:23:46.650Z,100157.72
2019-03-06T04:28:52.006Z,100156.30
2019-03-06T04:33:57.415Z,100155.82
2019-03-06T04:39:02.861Z,100160.26
2019-03-06T04:44:08.193Z,100144.91
2019-03-06T04:49:13.562Z,100142.36
2019-03-06T04:54:18.963Z,100123.98
2019-03-06T04:59:24.291Z,100125.84
2019-03-06T05:04:29.769Z,100109.75
2019-03-06T05:09:35.108Z,100115.11
2019-03-06T05:14:40.483Z,100097.09
2019-03-06T05:19:45.855Z,100094.70
2019-03-06T05:24:51.254Z,100083.84
2019-03-06T05:29:56.629Z,100072.86
2019-03-06T05:35:09.473Z,100063.78
2019-03-06T05:40:14.842Z,100065.13
2019-03-06T05:45:20.280Z,100045.91
2019-03-06T05:50:25.728Z,100037.63
2019-03-06T05:55:31.137Z,100032.43
2019-03-06T06:00:36.525Z,100030.66
2019-03-06T06:05:41.861Z,100011.59
2019-03-06T06:10:47.214Z,100014.19
2019-03-06T06:15:52.537Z,99999.63
2019-03-06T06:21:12.375Z,100003.53
2019-03-06T06:26:17.812Z,99995.95
2019-03-06T06:31:23.177Z,99995.39
2019-03-06T06:36:28.538Z,99991.06
2019-03-06T06:41:34.037Z,99967.88
2019-03-06T06:46:39.504Z,99970.04
2019-03-06T06:52:52.548Z,99967.74
2019-03-06T06:58:56.235Z,99948.88
2019-03-06T07:05:32.172Z,99945.05
2019-03-06T07:10:56.552Z,99920.45
2019-03-06T07:16:23.646Z,99908.24
2019-03-06T07:21:38.485Z,99913.52
2019-03-06T07:27:02.591Z,99898.14
2019-03-06T07:32:25.405Z,99902.38
2019-03-06T07:37:45.464Z,99902.97
2019-03-06T07:43:04.238Z,99895.80
2019-03-06T07:48:22.605Z,99886.17
2019-03-06T07:54:19.396Z,99877.17
2019-03-06T07:59:24.780Z,99873.56
2019-03-06T08:04:32.889Z,99867.80
2019-03-06T08:09:38.251Z,99861.82
2019-03-06T08:15:05.425Z,99857.68
2019-03-06T08:20:29.880Z,99849.23
2019-03-06T08:25:48.182Z,99830.19
2019-03-06T08:30:57.899Z,99824.03
2019-03-06T08:36:03.348Z,99818.63
2019-03-06T08:41:08.756Z,99816.52
2019-03-06T08:46:36.389Z,99809.56
2019-03-06T08:51:50.488Z,99805.42
2019-03-06T08:57:14.864Z,99791.50
2019-03-06T09:02:42.640Z,99774.17
2019-03-06T09:08:06.916Z,99767.02
2019-03-06T09:13:37.151Z,99750.73
2019-03-06T09:19:19.588Z,99743.34
2019-03-06T09:24:42.721Z,99734.97
2019-03-06T09:29:58.507Z,99721.05
2019-03-06T09:35:28.626Z,99730.16
2019-03-06T09:40:55.714Z,99706.35
2019-03-06T09:46:17.909Z,99714.75
2019-03-06T09:51:43.869Z,99703.55
2019-03-06T09:57:14.459Z,99714.80
2019-03-06T10:02:45.202Z,99714.06
2019-03-06T10:08:07.759Z,99706.91
2019-03-06T10:13:27.787Z,99685.88
2019-03-06T10:18:43.843Z,99675.74
2019-03-06T10:23:49.211Z,99671.70
2019-03-06T10:28:54.754Z,99677.80
2019-03-06T10:34:00.085Z,99679.63
2019-03-06T10:39:06.802Z,99670.46
2019-03-06T10:44:12.208Z,99659.49
2019-03-06T10:49:17.564Z,99666.14
2019-03-06T10:54:22.941Z,99648.70
2019-03-06T10:59:28.401Z,99636.19
2019-03-06T11:04:47.472Z,99651.83
2019-03-06T11:09:53.114Z,99644.99
2019-03-06T11:14:58.607Z,99642.84
2019-03-06T11:20:04.040Z,99631.91
2019-03-06T11:25:10.052Z,99629.61
2019-03-06T11:30:22.605Z,99611.38
2019-03-06T11:35:28.288Z,99593.88
2019-03-06T11:40:34.035Z,99585.16
2019-03-06T11:45:40.240Z,99562.47
2019-03-06T11:50:45.813Z,99556.63
2019-03-06T11:55:51.277Z,99539.47
2019-03-06T12:00:56.681Z,99537.25
2019-03-06T12:06:02.053Z,99524.72
2019-03-06T12:11:07.431Z,99510.88
2019-03-06T12:16:12.828Z,99499.23
2019-03-06T12:21:18.251Z,99487.45
2019-03-06T12:26:23.631Z,99464.73
2019-03-06T12:31:28.988Z,99451.38
2019-03-06T12:36:36.137Z,99444.34
2019-03-06T12:41:41.584Z,99438.42
2019-03-06T12:46:51.130Z,99429.73
2019-03-06T12:51:56.591Z,99433.78
2019-03-06T12:57:02.114Z,99428.67
2019-03-06T13:02:07.574Z,99408.09
2019-03-06T13:07:12.998Z,99418.06
2019-03-06T13:12:18.462Z,99390.48
2019-03-06T13:17:24.987Z,99387.65
2019-03-06T13:22:30.436Z,99371.52
2019-03-06T13:27:35.802Z,99389.80
2019-03-06T13:32:57.389Z,99389.42
2019-03-06T13:38:02.815Z,99373.83
2019-03-06T13:43:08.222Z,99370.36
2019-03-06T13:48:13.652Z,99364.53
2019-03-06T13:53:20.559Z,99353.95
2019-03-06T13:58:26.025Z,99348.02
2019-03-06T14:03:31.392Z,99337.55
2019-03-06T14:08:36.977Z,99366.22
2019-03-06T14:13:42.352Z,99369.75
2019-03-06T14:18:47.742Z,99365.55
2019-03-06T14:23:53.177Z,99367.52
2019-03-06T14:28:58.546Z,99363.69
2019-03-06T14:34:04.023Z,99354.41
2019-03-06T14:39:24.231Z,99348.25
2019-03-06T14:44:29.686Z,99346.45
2019-03-06T14:49:35.120Z,99339.89
2019-03-06T14:54:40.506Z,99324.69
2019-03-06T14:59:45.878Z,99309.25
2019-03-06T15:04:51.217Z,99304.20
2019-03-06T15:09:56.612Z,99290.85
2019-03-06T15:15:02.147Z,99286.69
2019-03-06T15:20:09.421Z,99279.52
2019-03-06T15:25:17.797Z,99274.11
2019-03-06T15:30:23.183Z,99274.26
2019-03-06T15:35:28.604Z,99276.48
2019-03-06T15:40:34.403Z,99277.98
2019-03-06T15:45:40.002Z,99274.31
2019-03-06T15:50:45.433Z,99255.43
2019-03-06T15:55:50.813Z,99256.47
2019-03-06T16:00:56.167Z,99249.71
2019-03-06T16:06:01.582Z,99246.83
2019-03-06T16:11:07.128Z,99239.16
2019-03-06T16:16:12.637Z,99244.95
2019-03-06T16:21:18.694Z,99245.87
2019-03-06T16:26:24.485Z,99246.30
2019-03-06T16:31:29.907Z,99236.72
2019-03-06T16:36:35.741Z,99232.47
2019-03-06T16:41:41.581Z,99237.00
2019-03-06T16:46:47.378Z,99219.16
2019-03-06T16:51:52.995Z,99216.72
2019-03-06T16:56:59.324Z,99219.03
2019-03-06T17:02:04.916Z,99218.27
2019-03-06T17:07:10.706Z,99208.09
2019-03-06T17:12:18.618Z,99200.61
2019-03-06T17:17:23.814Z,99213.64
2019-03-06T17:22:29.246Z,99208.64
2019-03-06T17:27:34.925Z,99190.66
2019-03-06T17:32:52.916Z,99200.03
2019-03-06T17:37:58.844Z,99211.43
2019-03-06T17:43:04.667Z,99210.65
2019-03-06T17:48:10.424Z,99206.38
2019-03-06T17:53:15.861Z,99207.63
2019-03-06T17:58:21.274Z,99206.63
2019-03-06T18:03:54.543Z,99192.60
2019-03-06T18:09:00.113Z,99181.96
2019-03-06T18:14:05.626Z,99176.90
2019-03-06T18:19:11.152Z,99174.95
2019-03-06T18:24:16.753Z,99169.08
2019-03-06T18:29:22.191Z,99170.77
2019-03-06T18:34:29.209Z,99173.13
2019-03-06T18:39:36.405Z,99173.41
2019-03-06T18:44:41.857Z,99164.34
2019-03-06T18:49:47.342Z,99161.44
2019-03-06T18:54:53.004Z,99152.25
2019-03-06T18:59:58.531Z,99153.01
2019-03-06T19:05:04.027Z,99155.99
2019-03-06T19:10:11.149Z,99140.59
2019-03-06T19:15:18.724Z,99140.89
2019-03-06T19:20:24.385Z,99136.06
2019-03-06T19:25:31.281Z,99130.88
2019-03-06T19:30:36.964Z,99121.42
2019-03-06T19:35:42.628Z,99115.59
2019-03-06T19:40:48.352Z,99111.27
2019-03-06T19:45:53.849Z,99108.44
2019-03-06T19:51:00.784Z,99095.92
2019-03-06T19:56:06.320Z,99089.56
2019-03-06T20:01:11.801Z,99086.87
2019-03-06T20:06:26.604Z,99078.84
2019-03-06T20:11:24.390Z,99074.79
2019-03-06T20:16:30.023Z,99065.52
2019-03-06T20:21:35.576Z,99058.30
2019-03-06T20:26:41.067Z,99072.40
2019-03-06T20:31:46.614Z,99065.38
2019-03-06T20:36:52.294Z,99063.18
2019-03-06T20:41:57.859Z,99049.41
2019-03-06T20:47:03.471Z,99050.45
2019-03-06T20:52:09.225Z,99056.61
2019-03-06T20:57:14.682Z,99052.89
2019-03-06T21:02:20.258Z,99051.76
2019-03-06T21:07:25.991Z,99048.88
2019-03-06T21:12:31.498Z,99046.36
2019-03-06T21:17:37.112Z,99046.36
2019-03-06T21:22:42.780Z,99033.79
2019-03-06T21:27:48.302Z,99037.09
2019-03-06T21:32:54.052Z,99030.59
2019-03-06T21:37:59.510Z,99028.44
2019-03-06T21:43:05.232Z,99026.02
2019-03-06T21:48:10.818Z,99026.42
2019-03-06T21:53:17.142Z,99025.02
2019-03-06T21:58:22.573Z,99026.93
2019-03-06T22:03:28.231Z,99013.06
2019-03-06T22:08:33.615Z,99010.63
2019-03-06T22:13:39.235Z,99008.09
2019-03-06T22:18:45.001Z,99003.22
2019-03-06T22:23:50.370Z,98994.05
2019-03-06T22:28:55.760Z,98994.59
2019-03-06T22:34:01.244Z,98987.58
2019-03-06T22:39:07.530Z,98972.95
2019-03-06T22:44:12.937Z,98975.28
2019-03-06T22:49:18.394Z,98962.08
2019-03-06T22:54:23.776Z,98950.14
2019-03-06T22:59:29.480Z,98944.98
2019-03-06T23:04:35.081Z,98936.98
2019-03-06T23:09:40.520Z,98938.17
2019-03-06T23:14:45.881Z,98926.35
2019-03-06T23:19:52.672Z,98920.58
2019-03-06T23:24:58.118Z,98911.30
2019-03-06T23:30:03.529Z,98899.00
2019-03-06T23:35:08.986Z,98888.91
2019-03-06T23:40:14.377Z,98874.66
2019-03-06T23:45:19.797Z,98853.56
2019-03-06T23:50:25.178Z,98843.88
2019-03-06T23:55:30.959Z,98853.03
